createdAt,value
2019-03-23T00:00:53.207Z,91.63
2019-03-23T00:01:53.203Z,91.94
2019-03-23T00:02:53.226Z,92.04
2019-03-23T00:03:53.188Z,93.32
2019-03-23T00:04:53.164Z,92.70
2019-03-23T00:05:53.153Z,92.80
2019-03-23T00:06:53.145Z,92.64
2019-03-23T00:07:53.141Z,92.54
2019-03-23T00:08:53.158Z,93.16
2019-03-23T00:09:53.150Z,93.10
2019-03-23T00:10:53.097Z,93.20
2019-03-23T00:11:53.085Z,92.63
2019-03-23T00:12:53.078Z,92.63
2019-03-23T00:13:53.066Z,93.65
2019-03-23T00:14:53.073Z,93.44
2019-03-23T00:15:53.056Z,94.21
2019-03-23T00:16:53.029Z,95.50
2019-03-23T00:17:53.018Z,95.45
2019-03-23T00:18:53.011Z,96.27
2019-03-23T00:19:53.045Z,95.34
2019-03-23T00:20:52.986Z,96.06
2019-03-23T00:21:52.997Z,96.58
2019-03-23T00:22:52.967Z,96.68
2019-03-23T00:23:52.968Z,96.47
2019-03-23T00:24:52.942Z,96.89
2019-03-23T00:25:52.969Z,96.68
2019-03-23T00:26:52.925Z,96.89
2019-03-23T00:27:52.942Z,97.09
2019-03-23T00:28:52.905Z,97.19
2019-03-23T00:29:52.890Z,97.09
2019-03-23T00:30:52.880Z,97.09
2019-03-23T00:31:52.866Z,97.40
2019-03-23T00:32:52.848Z,97.44
2019-03-23T00:33:52.860Z,97.24
2019-03-23T00:34:52.829Z,96.93
2019-03-23T00:35:52.822Z,97.34
2019-03-23T00:36:52.822Z,97.55
2019-03-23T00:37:52.796Z,97.44
2019-03-23T00:38:52.782Z,96.88
2019-03-23T00:39:52.786Z,97.03
2019-03-23T00:40:52.802Z,96.88
2019-03-23T00:41:52.796Z,97.39
2019-03-23T00:42:52.744Z,98.00
2019-03-23T00:43:52.725Z,97.80
2019-03-23T00:44:52.726Z,97.49
2019-03-23T00:45:52.706Z,97.08
2019-03-23T00:46:52.711Z,97.28
2019-03-23T00:47:52.686Z,97.28
2019-03-23T00:48:52.695Z,98.05
2019-03-23T00:49:52.674Z,98.46
2019-03-23T00:50:52.661Z,98.15
2019-03-23T00:51:52.661Z,97.13
2019-03-23T00:52:52.629Z,97.13
2019-03-23T00:53:52.663Z,97.58
2019-03-23T00:54:52.609Z,97.27
2019-03-23T00:55:52.593Z,97.17
2019-03-23T00:56:52.599Z,97.06
2019-03-23T00:57:52.576Z,97.38
2019-03-23T00:58:52.567Z,98.92
2019-03-23T00:59:52.599Z,99.33
2019-03-23T01:00:52.536Z,99.95
2019-03-23T01:01:52.546Z,99.29
2019-03-23T01:02:52.541Z,99.23
2019-03-23T01:03:52.500Z,98.41
2019-03-23T01:04:52.527Z,98.20
2019-03-23T01:05:52.477Z,97.94
2019-03-23T01:06:52.566Z,98.35
2019-03-23T01:07:52.462Z,98.86
2019-03-23T01:08:52.464Z,98.14
2019-03-23T01:09:52.436Z,98.70
2019-03-23T01:10:52.463Z,98.60
2019-03-23T01:11:52.411Z,99.22
2019-03-23T01:12:52.395Z,99.27
2019-03-23T01:13:52.429Z,99.32
2019-03-23T01:14:52.387Z,99.22
2019-03-23T01:15:52.374Z,99.94
2019-03-23T01:16:52.360Z,99.94
2019-03-23T01:17:52.350Z,99.73
2019-03-23T01:18:52.330Z,99.94
2019-03-23T01:19:52.339Z,99.63
2019-03-23T01:20:52.323Z,99.68
2019-03-23T01:21:52.309Z,99.52
2019-03-23T01:22:52.306Z,99.99
2019-03-23T01:23:52.287Z,99.99
2019-03-23T01:24:52.308Z,99.99
2019-03-23T01:25:52.281Z,99.99
2019-03-23T01:26:52.241Z,99.99
2019-03-23T01:27:52.231Z,99.99
2019-03-23T01:28:52.219Z,99.99
2019-03-23T01:29:52.263Z,99.99
2019-03-23T01:30:52.201Z,99.99
2019-03-23T01:31:52.199Z,99.99
2019-03-23T01:32:52.185Z,99.99
2019-03-23T01:33:52.170Z,99.99
2019-03-23T01:34:52.151Z,99.99
2019-03-23T01:35:52.139Z,99.99
2019-03-23T01:37:02.320Z,99.99
2019-03-23T01:37:53.116Z,99.99
2019-03-23T01:38:52.106Z,99.99
2019-03-23T01:39:52.093Z,99.99
2019-03-23T01:40:52.083Z,99.99
2019-03-23T01:41:52.139Z,99.99
2019-03-23T01:42:52.060Z,99.99
2019-03-23T01:43:52.050Z,99.99
2019-03-23T01:44:52.037Z,99.99
2019-03-23T01:45:52.027Z,99.99
2019-03-23T01:46:52.014Z,99.99
2019-03-23T01:47:52.048Z,99.99
2019-03-23T01:48:51.990Z,99.99
2019-03-23T01:49:51.985Z,99.99
2019-03-23T01:50:51.966Z,99.99
2019-03-23T01:51:51.957Z,99.99
2019-03-23T01:52:51.966Z,99.99
2019-03-23T01:53:51.960Z,99.99
2019-03-23T01:54:51.925Z,99.99
2019-03-23T01:55:51.914Z,99.99
2019-03-23T01:56:51.903Z,99.99
2019-03-23T01:57:51.907Z,99.99
2019-03-23T01:58:51.929Z,99.99
2019-03-23T01:59:51.866Z,99.99
2019-03-23T02:00:51.912Z,99.99
2019-03-23T02:01:51.846Z,99.99
2019-03-23T02:02:51.839Z,99.99
2019-03-23T02:03:51.826Z,99.99
2019-03-23T02:04:51.832Z,99.99
2019-03-23T02:05:51.802Z,99.99
2019-03-23T02:06:51.820Z,99.99
2019-03-23T02:07:51.786Z,99.99
2019-03-23T02:08:51.765Z,99.99
2019-03-23T02:09:51.773Z,99.99
2019-03-23T02:10:51.747Z,99.99
2019-03-23T02:11:51.737Z,99.99
2019-03-23T02:12:51.723Z,99.99
2019-03-23T02:13:51.760Z,99.99
2019-03-23T02:14:51.721Z,99.99
2019-03-23T02:15:51.688Z,99.99
2019-03-23T02:16:51.679Z,99.99
2019-03-23T02:17:51.670Z,99.99
2019-03-23T02:18:51.664Z,99.99
2019-03-23T02:19:51.677Z,99.99
2019-03-23T02:20:51.656Z,99.99
2019-03-23T02:21:51.641Z,99.99
2019-03-23T02:22:51.626Z,99.99
2019-03-23T02:23:51.613Z,99.99
2019-03-23T02:24:51.612Z,99.99
2019-03-23T02:25:51.605Z,99.99
2019-03-23T02:26:51.583Z,99.99
2019-03-23T02:27:51.589Z,99.99
2019-03-23T02:28:51.547Z,99.99
2019-03-23T02:29:51.545Z,99.99
2019-03-23T02:30:51.525Z,99.99
2019-03-23T02:31:51.525Z,99.99
2019-03-23T02:32:51.501Z,99.99
2019-03-23T02:33:51.518Z,99.99
2019-03-23T02:34:51.523Z,99.99
2019-03-23T02:35:51.466Z,99.99
2019-03-23T02:36:51.464Z,99.99
2019-03-23T02:37:51.455Z,99.99
2019-03-23T02:38:51.435Z,99.99
2019-03-23T02:39:51.489Z,99.99
2019-03-23T02:40:51.416Z,99.99
2019-03-23T02:41:51.397Z,99.99
2019-03-23T02:42:51.396Z,99.99
2019-03-23T02:43:51.376Z,99.99
2019-03-23T02:44:51.372Z,99.99
2019-03-23T02:45:51.420Z,99.99
2019-03-23T02:46:51.353Z,99.99
2019-03-23T02:47:51.341Z,99.99
2019-03-23T02:48:51.329Z,99.99
2019-03-23T02:49:51.312Z,99.99
2019-03-23T02:50:51.339Z,99.99
2019-03-23T02:51:51.288Z,99.99
2019-03-23T02:52:51.300Z,99.99
2019-03-23T02:53:51.268Z,99.99
2019-03-23T02:54:51.256Z,99.99
2019-03-23T02:55:51.257Z,99.99
2019-03-23T02:56:51.264Z,99.99
2019-03-23T02:57:51.229Z,99.99
2019-03-23T02:58:51.254Z,99.99
2019-03-23T02:59:51.223Z,99.99
2019-03-23T03:00:51.190Z,99.99
2019-03-23T03:01:51.176Z,99.99
2019-03-23T03:02:51.167Z,99.99
2019-03-23T03:03:51.161Z,99.99
2019-03-23T03:04:51.157Z,99.99
2019-03-23T03:05:51.133Z,99.99
2019-03-23T03:06:51.159Z,99.99
2019-03-23T03:07:51.124Z,99.99
2019-03-23T03:08:51.105Z,99.99
2019-03-23T03:09:51.097Z,99.99
2019-03-23T03:10:51.075Z,99.99
2019-03-23T03:11:51.073Z,99.99
2019-03-23T03:12:51.081Z,99.99
2019-03-23T03:13:51.047Z,99.99
2019-03-23T03:14:51.049Z,99.99
2019-03-23T03:15:51.023Z,99.99
2019-03-23T03:16:51.005Z,99.99
2019-03-23T03:17:50.996Z,99.99
2019-03-23T03:18:51.000Z,99.99
2019-03-23T03:19:51.007Z,99.99
2019-03-23T03:20:50.975Z,99.99
2019-03-23T03:21:50.953Z,99.99
2019-03-23T03:22:50.942Z,99.99
2019-03-23T03:23:50.928Z,99.99
2019-03-23T03:24:50.920Z,99.99
2019-03-23T03:25:50.955Z,99.99
2019-03-23T03:26:50.894Z,99.99
2019-03-23T03:27:50.889Z,99.99
2019-03-23T03:28:50.878Z,99.99
2019-03-23T03:29:50.871Z,99.99
2019-03-23T03:30:50.866Z,99.99
2019-03-23T03:31:50.900Z,99.99
2019-03-23T03:32:50.859Z,99.99
2019-03-23T03:33:50.858Z,99.99
2019-03-23T03:34:50.806Z,99.99
2019-03-23T03:35:50.800Z,99.99
2019-03-23T03:36:50.787Z,99.99
2019-03-23T03:37:56.868Z,99.99
2019-03-23T03:38:51.813Z,99.99
2019-03-23T03:39:50.756Z,99.99
2019-03-23T03:40:50.745Z,99.99
2019-03-23T03:41:50.732Z,99.99
2019-03-23T03:42:50.731Z,99.99
2019-03-23T03:43:50.743Z,99.99
2019-03-23T03:44:50.718Z,99.99
2019-03-23T03:45:50.720Z,99.99
2019-03-23T03:46:50.677Z,99.99
2019-03-23T03:47:50.665Z,99.99
2019-03-23T03:48:50.659Z,99.99
2019-03-23T03:49:50.685Z,99.99
2019-03-23T03:50:50.656Z,99.99
2019-03-23T03:51:50.623Z,99.99
2019-03-23T03:52:50.610Z,99.99
2019-03-23T03:53:50.626Z,99.99
2019-03-23T03:54:50.592Z,99.99
2019-03-23T03:55:50.598Z,99.99
2019-03-23T03:56:50.579Z,99.99
2019-03-23T03:57:50.557Z,99.99
2019-03-23T03:58:50.552Z,99.99
2019-03-23T03:59:50.574Z,99.99
2019-03-23T04:00:50.592Z,99.99
2019-03-23T04:01:50.506Z,99.99
2019-03-23T04:02:50.516Z,99.99
2019-03-23T04:03:50.484Z,99.99
2019-03-23T04:04:50.523Z,99.99
2019-03-23T04:05:50.481Z,99.99
2019-03-23T04:06:50.494Z,99.99
2019-03-23T04:07:50.445Z,99.99
2019-03-23T04:08:50.432Z,99.99
2019-03-23T04:09:50.418Z,99.99
2019-03-23T04:10:50.427Z,99.99
2019-03-23T04:11:50.392Z,99.99
2019-03-23T04:12:50.382Z,99.99
2019-03-23T04:13:50.372Z,99.99
2019-03-23T04:14:50.395Z,99.99
2019-03-23T04:15:50.384Z,99.99
2019-03-23T04:16:50.400Z,99.99
2019-03-23T04:17:50.326Z,99.99
2019-03-23T04:18:50.318Z,99.99
2019-03-23T04:19:50.311Z,99.99
2019-03-23T04:20:50.309Z,99.99
2019-03-23T04:21:50.285Z,99.99
2019-03-23T04:22:50.372Z,99.99
2019-03-23T04:23:50.262Z,99.99
2019-03-23T04:24:50.263Z,99.99
2019-03-23T04:25:50.236Z,99.99
2019-03-23T04:26:50.224Z,99.99
2019-03-23T04:27:50.231Z,99.99
2019-03-23T04:28:50.223Z,99.99
2019-03-23T04:29:50.193Z,99.99
2019-03-23T04:30:50.237Z,99.99
2019-03-23T04:31:50.177Z,99.99
2019-03-23T04:32:50.163Z,99.99
2019-03-23T04:33:50.164Z,99.99
2019-03-23T04:34:50.142Z,99.99
2019-03-23T04:35:50.148Z,99.99
2019-03-23T04:36:50.115Z,99.99
2019-03-23T04:37:50.106Z,99.99
2019-03-23T04:38:50.119Z,99.99
2019-03-23T04:39:50.106Z,99.99
2019-03-23T04:40:50.079Z,99.99
2019-03-23T04:41:50.057Z,99.99
2019-03-23T04:42:50.107Z,99.99
2019-03-23T04:43:50.036Z,99.99
2019-03-23T04:44:50.061Z,99.99
2019-03-23T04:45:50.011Z,99.99
2019-03-23T04:46:50.008Z,99.99
2019-03-23T04:47:50.014Z,99.99
2019-03-23T04:48:49.981Z,99.99
2019-03-23T04:49:49.988Z,99.99
2019-03-23T04:50:49.973Z,99.99
2019-03-23T04:51:49.954Z,99.99
2019-03-23T04:52:49.936Z,99.99
2019-03-23T04:53:49.923Z,99.99
2019-03-23T04:54:49.916Z,99.99
2019-03-23T04:55:49.917Z,99.99
2019-03-23T04:56:49.899Z,99.99
2019-03-23T04:57:49.912Z,99.99
2019-03-23T04:58:49.867Z,99.99
2019-03-23T04:59:49.863Z,99.99
2019-03-23T05:00:49.865Z,99.99
2019-03-23T05:01:49.836Z,99.99
2019-03-23T05:02:49.858Z,99.99
2019-03-23T05:03:49.813Z,99.99
2019-03-23T05:04:49.837Z,99.99
2019-03-23T05:05:49.825Z,99.99
2019-03-23T05:06:49.777Z,99.99
2019-03-23T05:07:49.801Z,99.99
2019-03-23T05:08:49.757Z,99.99
2019-03-23T05:09:49.747Z,99.99
2019-03-23T05:10:49.740Z,99.99
2019-03-23T05:11:49.725Z,99.99
2019-03-23T05:12:49.714Z,99.99
2019-03-23T05:13:49.732Z,99.99
2019-03-23T05:14:49.695Z,99.99
2019-03-23T05:15:49.676Z,99.99
2019-03-23T05:16:49.665Z,99.99
2019-03-23T05:17:49.669Z,99.99
2019-03-23T05:18:49.646Z,99.99
2019-03-23T05:19:49.645Z,99.99
2019-03-23T05:20:49.622Z,99.99
2019-03-23T05:21:49.662Z,99.99
2019-03-23T05:22:49.597Z,99.99
2019-03-23T05:23:49.592Z,99.99
2019-03-23T05:24:49.619Z,99.99
2019-03-23T05:25:49.568Z,99.99
2019-03-23T05:26:49.555Z,99.99
2019-03-23T05:27:49.570Z,99.99
2019-03-23T05:28:49.532Z,99.99
2019-03-23T05:29:49.524Z,99.99
2019-03-23T05:30:49.530Z,99.99
2019-03-23T05:31:49.498Z,99.99
2019-03-23T05:32:49.493Z,99.99
2019-03-23T05:33:49.475Z,99.99
2019-03-23T05:34:49.474Z,99.99
2019-03-23T05:35:49.491Z,99.99
2019-03-23T05:36:49.456Z,99.99
2019-03-23T05:37:49.431Z,99.99
2019-03-23T05:38:49.420Z,99.99
2019-03-23T05:39:49.416Z,99.99
2019-03-23T05:40:49.397Z,99.99
2019-03-23T05:41:49.426Z,99.99
2019-03-23T05:42:49.403Z,99.99
2019-03-23T05:43:49.381Z,99.99
2019-03-23T05:44:49.350Z,99.99
2019-03-23T05:45:49.343Z,99.99
2019-03-23T05:46:49.343Z,99.99
2019-03-23T05:47:49.345Z,99.99
2019-03-23T05:48:49.307Z,99.99
2019-03-23T05:49:49.303Z,99.99
2019-03-23T05:50:49.295Z,99.99
2019-03-23T05:51:49.277Z,99.99
2019-03-23T05:52:49.288Z,99.99
2019-03-23T05:53:49.270Z,99.99
2019-03-23T05:54:49.244Z,99.99
2019-03-23T05:55:49.248Z,99.99
2019-03-23T05:56:49.227Z,99.99
2019-03-23T05:57:49.211Z,99.99
2019-03-23T05:58:49.212Z,99.99
2019-03-23T05:59:49.187Z,99.99
2019-03-23T06:00:49.180Z,99.99
2019-03-23T06:01:49.178Z,99.99
2019-03-23T06:02:49.182Z,99.99
2019-03-23T06:03:49.158Z,99.99
2019-03-23T06:04:49.132Z,99.99
2019-03-23T06:05:49.118Z,99.90
2019-03-23T06:06:49.110Z,99.90
2019-03-23T06:07:49.101Z,99.79
2019-03-23T06:08:55.001Z,99.17
2019-03-23T06:09:50.074Z,99.13
2019-03-23T06:10:49.098Z,98.71
2019-03-23T06:11:49.052Z,98.61
2019-03-23T06:12:49.042Z,98.41
2019-03-23T06:13:49.030Z,98.50
2019-03-23T06:14:49.017Z,97.95
2019-03-23T06:15:49.011Z,97.39
2019-03-23T06:16:49.044Z,96.21
2019-03-23T06:17:48.984Z,95.86
2019-03-23T06:18:48.970Z,94.48
2019-03-23T06:19:48.958Z,93.82
2019-03-23T06:20:48.952Z,92.85
2019-03-23T06:21:48.960Z,93.12
2019-03-23T06:22:48.945Z,93.07
2019-03-23T06:23:48.921Z,93.07
2019-03-23T06:24:48.915Z,90.40
2019-03-23T06:25:48.917Z,89.83
2019-03-23T06:26:48.911Z,90.55
2019-03-23T06:27:48.874Z,91.82
2019-03-23T06:28:48.859Z,92.38
2019-03-23T06:29:48.847Z,92.58
2019-03-23T06:30:48.848Z,93.04
2019-03-23T06:31:48.825Z,93.86
2019-03-23T06:32:48.842Z,94.58
2019-03-23T06:33:48.833Z,95.09
2019-03-23T06:34:48.797Z,95.14
2019-03-23T06:35:48.791Z,95.14
2019-03-23T06:36:48.775Z,95.45
2019-03-23T06:37:48.773Z,95.86
2019-03-23T06:38:48.772Z,96.31
2019-03-23T06:39:48.761Z,96.17
2019-03-23T06:40:48.748Z,96.31
2019-03-23T06:41:48.730Z,97.14
2019-03-23T06:42:59.142Z,97.03
2019-03-23T06:43:49.696Z,97.34
2019-03-23T06:44:48.717Z,97.24
2019-03-23T06:45:48.667Z,97.14
2019-03-23T06:46:48.661Z,97.24
2019-03-23T06:47:48.652Z,97.24
2019-03-23T06:48:48.652Z,97.75
2019-03-23T06:49:48.648Z,97.75
2019-03-23T06:50:48.646Z,98.16
2019-03-23T06:51:48.656Z,98.27
2019-03-23T06:52:48.613Z,98.47
2019-03-23T06:53:48.588Z,98.21
2019-03-23T06:54:48.569Z,98.47
2019-03-23T06:55:48.583Z,98.47
2019-03-23T06:56:48.571Z,98.27
2019-03-23T06:57:48.541Z,98.06
2019-03-23T06:58:48.523Z,98.06
2019-03-23T06:59:48.513Z,98.27
2019-03-23T07:00:48.566Z,98.27
2019-03-23T07:01:48.541Z,98.06
2019-03-23T07:02:48.485Z,98.37
2019-03-23T07:03:48.470Z,98.27
2019-03-23T07:04:48.458Z,97.96
2019-03-23T07:05:48.448Z,98.27
2019-03-23T07:06:48.437Z,98.47
2019-03-23T07:07:48.449Z,97.96
2019-03-23T07:08:48.408Z,98.16
2019-03-23T07:09:48.405Z,98.27
2019-03-23T07:10:48.392Z,98.37
2019-03-23T07:11:48.373Z,97.96
2019-03-23T07:12:48.379Z,98.06
2019-03-23T07:13:48.400Z,98.58
2019-03-23T07:14:48.354Z,98.37
2019-03-23T07:15:48.326Z,98.58
2019-03-23T07:16:48.325Z,98.58
2019-03-23T07:17:48.306Z,98.16
2019-03-23T07:18:48.296Z,98.47
2019-03-23T07:19:48.299Z,98.99
2019-03-23T07:20:48.278Z,99.09
2019-03-23T07:21:48.265Z,98.33
2019-03-23T07:22:48.263Z,98.22
2019-03-23T07:23:48.254Z,98.33
2019-03-23T07:24:48.250Z,98.22
2019-03-23T07:25:48.227Z,98.22
2019-03-23T07:26:48.205Z,97.14
2019-03-23T07:27:48.207Z,97.14
2019-03-23T07:28:48.193Z,97.55
2019-03-23T07:29:48.268Z,98.32
2019-03-23T07:30:48.177Z,98.99
2019-03-23T07:31:48.146Z,98.27
2019-03-23T07:32:48.137Z,98.37
2019-03-23T07:33:48.156Z,98.21
2019-03-23T07:34:48.160Z,99.34
2019-03-23T07:35:48.138Z,99.55
2019-03-23T07:36:48.099Z,99.86
2019-03-23T07:37:48.090Z,99.81
2019-03-23T07:38:48.074Z,99.30
2019-03-23T07:39:48.068Z,99.30
2019-03-23T07:40:48.056Z,98.99
2019-03-23T07:41:48.062Z,99.51
2019-03-23T07:42:48.045Z,99.30
2019-03-23T07:43:48.021Z,98.79
2019-03-23T07:44:48.009Z,98.27
2019-03-23T07:45:47.999Z,98.16
2019-03-23T07:46:47.990Z,97.86
2019-03-23T07:47:48.029Z,98.47
2019-03-23T07:48:47.977Z,98.47
2019-03-23T07:49:47.956Z,98.47
2019-03-23T07:50:47.933Z,98.37
2019-03-23T07:51:47.927Z,98.06
2019-03-23T07:52:47.918Z,98.47
2019-03-23T07:53:47.943Z,97.90
2019-03-23T07:54:47.902Z,98.27
2019-03-23T07:55:47.896Z,98.27
2019-03-23T07:56:47.867Z,98.58
2019-03-23T07:57:47.860Z,98.16
2019-03-23T07:58:47.844Z,98.27
2019-03-23T07:59:47.851Z,96.83
2019-03-23T08:00:47.850Z,96.62
2019-03-23T08:01:47.841Z,96.25
2019-03-23T08:02:47.806Z,95.99
2019-03-23T08:03:47.837Z,96.81
2019-03-23T08:04:47.825Z,96.09
2019-03-23T08:05:47.772Z,96.20
2019-03-23T08:06:47.754Z,95.89
2019-03-23T08:07:47.744Z,95.53
2019-03-23T08:08:47.732Z,94.96
2019-03-23T08:09:47.719Z,95.78
2019-03-23T08:10:47.743Z,95.58
2019-03-23T08:11:47.695Z,96.03
2019-03-23T08:12:47.691Z,96.75
2019-03-23T08:13:47.681Z,96.03
2019-03-23T08:14:47.669Z,95.73
2019-03-23T08:15:47.672Z,96.24
2019-03-23T08:16:47.640Z,95.64
2019-03-23T08:17:47.633Z,95.06
2019-03-23T08:18:47.642Z,93.99
2019-03-23T08:19:47.613Z,93.99
2019-03-23T08:20:47.595Z,93.06
2019-03-23T08:21:47.591Z,93.11
2019-03-23T08:22:47.585Z,92.69
2019-03-23T08:23:47.587Z,91.93
2019-03-23T08:24:47.552Z,91.83
2019-03-23T08:25:47.550Z,91.11
2019-03-23T08:26:47.545Z,92.44
2019-03-23T08:27:47.519Z,91.93
2019-03-23T08:28:47.523Z,91.99
2019-03-23T08:29:47.506Z,91.62
2019-03-23T08:30:47.483Z,90.69
2019-03-23T08:31:47.477Z,91.83
2019-03-23T08:32:47.462Z,91.58
2019-03-23T08:33:47.514Z,90.28
2019-03-23T08:34:47.441Z,90.66
2019-03-23T08:35:47.428Z,89.52
2019-03-23T08:36:47.422Z,90.08
2019-03-23T08:37:47.422Z,90.08
2019-03-23T08:38:47.412Z,90.59
2019-03-23T08:39:48.743Z,90.28
2019-03-23T08:40:47.378Z,89.67
2019-03-23T08:41:47.411Z,89.77
2019-03-23T08:42:47.362Z,90.14
2019-03-23T08:43:47.354Z,89.62
2019-03-23T08:44:47.326Z,89.73
2019-03-23T08:45:47.314Z,89.11
2019-03-23T08:46:47.352Z,88.84
2019-03-23T08:47:47.307Z,88.80
2019-03-23T08:48:47.287Z,88.33
2019-03-23T08:49:47.273Z,88.90
2019-03-23T08:50:47.260Z,88.37
2019-03-23T08:51:47.332Z,89.29
2019-03-23T08:52:47.435Z,89.56
2019-03-23T08:53:47.225Z,89.87
2019-03-23T08:54:47.218Z,89.87
2019-03-23T08:55:47.209Z,89.73
2019-03-23T08:56:47.197Z,87.87
2019-03-23T08:57:47.213Z,87.87
2019-03-23T08:58:47.168Z,88.95
2019-03-23T08:59:47.165Z,88.59
2019-03-23T09:00:47.143Z,89.01
2019-03-23T09:01:47.172Z,87.67
2019-03-23T09:02:47.135Z,87.22
2019-03-23T09:03:52.499Z,87.15
2019-03-23T09:04:48.102Z,87.63
2019-03-23T09:05:47.100Z,87.67
2019-03-23T09:06:47.118Z,87.15
2019-03-23T09:07:47.067Z,87.98
2019-03-23T09:08:47.106Z,87.87
2019-03-23T09:09:47.044Z,87.87
2019-03-23T09:10:47.045Z,87.87
2019-03-23T09:11:47.043Z,87.87
2019-03-23T09:12:47.009Z,87.36
2019-03-23T09:13:47.016Z,87.46
2019-03-23T09:14:46.986Z,87.77
2019-03-23T09:15:46.992Z,87.77
2019-03-23T09:16:46.995Z,87.63
2019-03-23T09:17:46.951Z,86.91
2019-03-23T09:18:46.949Z,87.36
2019-03-23T09:19:46.944Z,87.36
2019-03-23T09:20:46.921Z,86.74
2019-03-23T09:21:46.911Z,87.81
2019-03-23T09:22:46.966Z,87.67
2019-03-23T09:23:46.930Z,88.08
2019-03-23T09:24:46.891Z,87.46
2019-03-23T09:25:46.865Z,87.05
2019-03-23T09:26:46.850Z,87.42
2019-03-23T09:27:46.839Z,87.01
2019-03-23T09:28:46.862Z,87.38
2019-03-23T09:29:46.847Z,86.80
2019-03-23T09:30:46.824Z,87.26
2019-03-23T09:31:46.800Z,89.22
2019-03-23T09:32:46.792Z,88.80
2019-03-23T09:33:46.800Z,88.14
2019-03-23T09:34:46.795Z,87.01
2019-03-23T09:35:46.749Z,87.01
2019-03-23T09:36:46.777Z,86.66
2019-03-23T09:37:46.728Z,85.84
2019-03-23T09:38:46.715Z,85.49
2019-03-23T09:39:46.701Z,84.98
2019-03-23T09:40:46.735Z,85.28
2019-03-23T09:41:46.681Z,85.39
2019-03-23T09:42:46.668Z,84.32
2019-03-23T09:43:46.716Z,83.81
2019-03-23T09:44:46.650Z,83.40
2019-03-23T09:45:46.663Z,83.64
2019-03-23T09:46:46.897Z,83.23
2019-03-23T09:47:46.834Z,83.44
2019-03-23T09:48:46.602Z,83.78
2019-03-23T09:49:46.589Z,84.13
2019-03-23T09:50:46.577Z,86.13
2019-03-23T09:51:46.569Z,85.92
2019-03-23T09:52:46.586Z,86.54
2019-03-23T09:53:46.545Z,87.05
2019-03-23T09:54:46.545Z,86.43
2019-03-23T09:55:46.531Z,87.51
2019-03-23T09:56:46.513Z,87.09
2019-03-23T09:57:46.768Z,87.71
2019-03-23T09:58:46.699Z,87.30
2019-03-23T09:59:46.507Z,86.74
2019-03-23T10:00:46.470Z,86.74
2019-03-23T10:01:46.462Z,87.46
2019-03-23T10:02:46.455Z,87.05
2019-03-23T10:03:46.463Z,87.60
2019-03-23T10:04:46.426Z,87.60
2019-03-23T10:05:46.410Z,87.81
2019-03-23T10:06:46.423Z,87.36
2019-03-23T10:07:46.403Z,87.40
2019-03-23T10:08:46.590Z,87.36
2019-03-23T10:09:46.395Z,87.87
2019-03-23T10:10:46.361Z,87.36
2019-03-23T10:11:46.351Z,85.92
2019-03-23T10:12:46.361Z,86.50
2019-03-23T10:13:46.320Z,86.50
2019-03-23T10:14:46.320Z,85.98
2019-03-23T10:15:46.305Z,85.47
2019-03-23T10:16:46.313Z,85.16
2019-03-23T10:17:46.275Z,85.16
2019-03-23T10:18:46.309Z,84.61
2019-03-23T10:19:46.253Z,84.34
2019-03-23T10:20:46.244Z,84.95
2019-03-23T10:21:46.237Z,85.68
2019-03-23T10:22:46.245Z,84.54
2019-03-23T10:23:46.223Z,84.95
2019-03-23T10:24:46.210Z,84.75
2019-03-23T10:25:46.189Z,85.16
2019-03-23T10:26:46.190Z,85.92
2019-03-23T10:27:46.164Z,85.82
2019-03-23T10:28:46.166Z,85.71
2019-03-23T10:29:46.183Z,85.71
2019-03-23T10:30:46.145Z,85.92
2019-03-23T10:31:46.149Z,85.98
2019-03-23T10:32:46.128Z,85.88
2019-03-23T10:33:46.123Z,85.71
2019-03-23T10:34:46.093Z,86.33
2019-03-23T10:35:46.086Z,86.23
2019-03-23T10:36:46.074Z,86.23
2019-03-23T10:37:46.048Z,85.88
2019-03-23T10:38:46.035Z,85.61
2019-03-23T10:39:46.050Z,86.02
2019-03-23T10:40:46.057Z,85.36
2019-03-23T10:41:46.007Z,85.92
2019-03-23T10:42:46.009Z,85.57
2019-03-23T10:43:45.986Z,85.30
2019-03-23T10:44:45.980Z,85.26
2019-03-23T10:45:45.992Z,85.57
2019-03-23T10:46:45.951Z,85.71
2019-03-23T10:47:46.113Z,85.20
2019-03-23T10:48:45.927Z,85.41
2019-03-23T10:49:45.933Z,85.71
2019-03-23T10:50:45.911Z,86.08
2019-03-23T10:51:45.929Z,85.68
2019-03-23T10:52:45.878Z,85.47
2019-03-23T10:53:45.874Z,84.30
2019-03-23T10:54:45.868Z,84.81
2019-03-23T10:55:45.849Z,84.71
2019-03-23T10:56:45.834Z,84.75
2019-03-23T10:57:45.839Z,85.43
2019-03-23T10:58:45.811Z,85.12
2019-03-23T10:59:45.806Z,85.33
2019-03-23T11:00:45.794Z,84.13
2019-03-23T11:01:45.799Z,84.09
2019-03-23T11:02:45.794Z,83.78
2019-03-23T11:03:45.768Z,83.31
2019-03-23T11:04:45.742Z,84.20
2019-03-23T11:05:45.760Z,85.02
2019-03-23T11:06:45.752Z,83.99
2019-03-23T11:07:45.716Z,83.03
2019-03-23T11:08:45.710Z,83.44
2019-03-23T11:09:45.712Z,83.44
2019-03-23T11:10:45.680Z,83.44
2019-03-23T11:11:45.679Z,83.61
2019-03-23T11:12:45.674Z,83.33
2019-03-23T11:13:45.681Z,82.82
2019-03-23T11:14:45.629Z,83.95
2019-03-23T11:15:45.619Z,83.70
2019-03-23T11:16:45.614Z,82.89
2019-03-23T11:17:45.607Z,82.37
2019-03-23T11:18:45.583Z,83.40
2019-03-23T11:19:45.619Z,82.78
2019-03-23T11:20:45.563Z,83.29
2019-03-23T11:21:45.585Z,83.29
2019-03-23T11:22:45.555Z,83.50
2019-03-23T11:23:45.677Z,81.86
2019-03-23T11:24:45.524Z,81.45
2019-03-23T11:25:45.527Z,81.34
2019-03-23T11:26:45.506Z,81.45
2019-03-23T11:27:45.482Z,80.73
2019-03-23T11:28:45.475Z,81.96
2019-03-23T11:29:45.470Z,81.90
2019-03-23T11:30:45.478Z,83.09
2019-03-23T11:31:45.439Z,82.17
2019-03-23T11:32:45.439Z,81.92
2019-03-23T11:33:45.455Z,81.41
2019-03-23T11:34:45.407Z,80.49
2019-03-23T11:35:45.416Z,80.76
2019-03-23T11:36:45.380Z,80.58
2019-03-23T11:37:45.633Z,80.49
2019-03-23T11:38:45.366Z,80.28
2019-03-23T11:39:45.364Z,80.58
2019-03-23T11:40:52.897Z,80.65
2019-03-23T11:41:46.334Z,80.86
2019-03-23T11:42:50.307Z,80.82
2019-03-23T11:43:46.334Z,80.14
2019-03-23T11:44:45.358Z,81.41
2019-03-23T11:45:45.326Z,81.82
2019-03-23T11:46:45.283Z,81.82
2019-03-23T11:47:45.272Z,80.65
2019-03-23T11:48:45.248Z,80.86
2019-03-23T11:49:45.257Z,81.92
2019-03-23T11:50:45.224Z,81.62
2019-03-23T11:51:45.240Z,82.03
2019-03-23T11:52:47.030Z,81.27
2019-03-23T11:53:45.192Z,81.27
2019-03-23T11:54:45.185Z,81.30
2019-03-23T11:55:45.175Z,81.06
2019-03-23T11:56:45.159Z,80.82
2019-03-23T11:57:45.231Z,80.76
2019-03-23T11:58:45.135Z,80.62
2019-03-23T11:59:45.128Z,80.72
2019-03-23T12:00:45.117Z,80.37
2019-03-23T12:01:51.813Z,79.00
2019-03-23T12:02:46.130Z,78.45
2019-03-23T12:03:45.087Z,78.56
2019-03-23T12:04:45.069Z,77.12
2019-03-23T12:05:45.098Z,77.80
2019-03-23T12:06:45.069Z,77.23
2019-03-23T12:07:45.040Z,78.05
2019-03-23T12:08:45.044Z,77.09
2019-03-23T12:09:45.063Z,77.60
2019-03-23T12:10:45.048Z,76.47
2019-03-23T12:11:44.990Z,76.88
2019-03-23T12:12:44.986Z,77.19
2019-03-23T12:13:44.995Z,76.98
2019-03-23T12:14:44.963Z,77.50
2019-03-23T12:15:44.963Z,77.19
2019-03-23T12:16:44.959Z,75.65
2019-03-23T12:17:44.918Z,75.45
2019-03-23T12:18:44.907Z,75.86
2019-03-23T12:19:44.922Z,77.09
2019-03-23T12:20:44.941Z,77.36
2019-03-23T12:21:44.881Z,76.20
2019-03-23T12:22:44.874Z,75.31
2019-03-23T12:23:44.874Z,75.99
2019-03-23T12:24:44.841Z,75.59
2019-03-23T12:25:44.838Z,74.93
2019-03-23T12:26:44.838Z,75.14
2019-03-23T12:27:44.803Z,75.00
2019-03-23T12:28:44.812Z,73.36
2019-03-23T12:29:44.780Z,73.64
2019-03-23T12:30:44.799Z,72.99
2019-03-23T12:31:44.763Z,71.33
2019-03-23T12:32:44.754Z,72.34
2019-03-23T12:33:44.748Z,71.43
2019-03-23T12:34:44.728Z,71.73
2019-03-23T12:35:44.751Z,73.23
2019-03-23T12:36:44.722Z,71.19
2019-03-23T12:37:44.694Z,71.53
2019-03-23T12:38:44.687Z,71.77
2019-03-23T12:39:44.682Z,72.11
2019-03-23T12:40:44.656Z,71.59
2019-03-23T12:41:44.702Z,73.54
2019-03-23T12:42:44.643Z,73.71
2019-03-23T12:43:44.644Z,74.43
2019-03-23T12:44:44.636Z,74.87
2019-03-23T12:45:44.612Z,75.75
2019-03-23T12:46:48.420Z,73.88
2019-03-23T12:47:44.608Z,73.68
2019-03-23T12:48:44.569Z,73.68
2019-03-23T12:49:44.562Z,72.55
2019-03-23T12:50:44.545Z,73.16
2019-03-23T12:51:44.560Z,73.57
2019-03-23T12:52:44.528Z,75.00